Accueil
METAR-TAF:

METAR-TAF

Aéroports :

Curaçao, Antilles néerlandaises

Aéroport international de Curaçao

latitude: 12-12N, longitude: 068-58W, altitude: 9 m

Observation

Le bulletin a été fait il y a 36 minutes, à 12:00 UTC
Vent 13 kt de sud-est, variant entre est et sud/sud-est
Température 30°C
Humidité 70%
Pression 1014 hPa
Visibilité 10 km ou plus
Quelques nuages à une hauteur de 1800 ft

METAR: TNCC 231200Z 13013KT 090V150 9999 FEW018 30/24 Q1014 NOSIG

Heure: 08:36 (12:36 UTC)

Prévision

Le bulletin a été fait il y a 2 heures et 36 minutes, à 10:00 UTC
Prévision valable du 23 à 12 UTC au 24 à 12 UTC
Vent 12 kt de est
Visibilité 10 km ou plus
Nuages épars à une hauteur de 1800 ft
Probabilité 30% :
Temporairement
du 23 à 12 UTC au 23 à 16 UTC
Nuages fragmentés à une hauteur de 1500 ft

TAF: TNCC 231000Z 2312/2412 10012KT 9999 SCT018 PROB30 TEMPO 2312/2316 BKN015

Observations et prévisions météorologiques de plus de 4000 aéroports (messages METAR et TAF).

Les stations disponibles sont représentées par des disques jaunes et rouges sur la carte.

Passer la souris dessus pour voir le nom de la station.

Cliquer dessus pour voir les observations et prévisions météorologiques.

Pour changer de carte: cliquez sur les boutons verts avec une croix noire pour zoomer, sur le bouton vert avec un tiret pour effectuer un zoom arrière, ou sur les flèches vertes pour les cartes adjacentes.


METAR-TAF: